Terminal Aerodrome Forecast
Issued by NWS

Home | Current Version | Previous Version | Text Only | Print | Product List | Glossary On
Versions: 1 2 3 4 5 6 7 8 9 10 11 12 13 14 15 16 17 18 19 20
000
FTUS41 KBGM 062329
TAFITH
TAF
KITH 062329Z 0700/0724 18008KT P6SM SCT025
      TEMPO 0700/0702 BKN025
     FM070200 16009KT P6SM OVC018
      TEMPO 0708/0712 4SM BR OVC007
     FM071200 20007KT 6SM HZ OVC025
     FM071500 21007KT P6SM BKN040
     FM071900 22008KT P6SM SCT060=

USA.gov is the U.S. government's official web portal to all federal, state and local government web resources and services.